sensor_id;sensor_type;location;lat;lon;timestamp;pressure;altitude;pressure_sealevel;temperature;humidity
42519;BME280;28147;47.520;18.920;2024-01-11T04:26:24;99506.28;;;-1.56;56.77
42519;BME280;28147;47.520;18.920;2024-01-11T04:28:51;99505.81;;;-1.19;55.21
42519;BME280;28147;47.520;18.920;2024-01-11T08:24:19;99431.50;;;2.28;51.89
42519;BME280;28147;47.520;18.920;2024-01-11T08:26:45;99422.56;;;2.47;50.83
42519;BME280;28147;47.520;18.920;2024-01-11T08:29:10;99423.19;;;2.41;49.41
42519;BME280;28147;47.520;18.920;2024-01-11T08:31:35;99420.81;;;2.98;48.85
42519;BME280;28147;47.520;18.920;2024-01-11T08:34:00;99420.50;;;3.01;47.16
42519;BME280;28147;47.520;18.920;2024-01-11T08:36:30;99424.16;;;3.08;46.84
42519;BME280;28147;47.520;18.920;2024-01-11T08:38:55;99424.69;;;2.78;47.39
42519;BME280;28147;47.520;18.920;2024-01-11T08:41:21;99419.47;;;2.86;47.61
42519;BME280;28147;47.520;18.920;2024-01-11T08:43:46;99413.09;;;2.02;48.00
42519;BME280;28147;47.520;18.920;2024-01-11T08:46:11;99410.78;;;3.02;45.74
42519;BME280;28147;47.520;18.920;2024-01-11T08:48:37;99410.75;;;3.69;45.75
42519;BME280;28147;47.520;18.920;2024-01-11T08:51:02;99407.78;;;3.88;44.07
42519;BME280;28147;47.520;18.920;2024-01-11T08:53:27;99416.00;;;4.18;43.53
42519;BME280;28147;47.520;18.920;2024-01-11T08:55:53;99416.94;;;3.19;44.20
42519;BME280;28147;47.520;18.920;2024-01-11T08:58:18;99421.13;;;2.95;44.97
42519;BME280;28147;47.520;18.920;2024-01-11T09:00:43;99402.81;;;3.52;43.88
42519;BME280;28147;47.520;18.920;2024-01-11T09:03:09;99424.56;;;4.75;41.06
42519;BME280;28147;47.520;18.920;2024-01-11T09:05:34;99419.94;;;5.17;39.44
42519;BME280;28147;47.520;18.920;2024-01-11T09:08:00;99413.69;;;5.64;40.05
42519;BME280;28147;47.520;18.920;2024-01-11T09:10:31;99415.38;;;5.02;38.56
42519;BME280;28147;47.520;18.920;2024-01-11T09:12:59;99406.22;;;5.21;39.33
42519;BME280;28147;47.520;18.920;2024-01-11T09:15:25;99406.13;;;5.83;39.03
42519;BME280;28147;47.520;18.920;2024-01-11T09:17:50;99401.84;;;5.59;36.73
42519;BME280;28147;47.520;18.920;2024-01-11T09:20:15;99396.16;;;5.48;37.51
42519;BME280;28147;47.520;18.920;2024-01-11T09:22:41;99399.94;;;6.44;37.46
42519;BME280;28147;47.520;18.920;2024-01-11T09:25:07;99410.34;;;6.75;35.94
42519;BME280;28147;47.520;18.920;2024-01-11T09:27:33;99398.56;;;6.18;35.33
42519;BME280;28147;47.520;18.920;2024-01-11T09:29:58;99390.47;;;6.49;35.82
42519;BME280;28147;47.520;18.920;2024-01-11T09:32:24;99388.06;;;5.95;36.49
42519;BME280;28147;47.520;18.920;2024-01-11T09:34:49;99378.81;;;5.45;36.08
42519;BME280;28147;47.520;18.920;2024-01-11T09:37:15;99371.63;;;5.39;35.90
42519;BME280;28147;47.520;18.920;2024-01-11T09:39:41;99355.84;;;5.31;38.96
42519;BME280;28147;47.520;18.920;2024-01-11T09:42:08;99352.97;;;6.01;38.08
42519;BME280;28147;47.520;18.920;2024-01-11T09:44:37;99356.16;;;6.12;36.49
42519;BME280;28147;47.520;18.920;2024-01-11T09:47:06;99340.09;;;5.60;37.33
42519;BME280;28147;47.520;18.920;2024-01-11T09:49:33;99341.44;;;5.56;38.57
42519;BME280;28147;47.520;18.920;2024-01-11T09:52:01;99333.47;;;5.65;38.48
42519;BME280;28147;47.520;18.920;2024-01-11T09:54:27;99332.22;;;5.90;38.90
42519;BME280;28147;47.520;18.920;2024-01-11T09:56:54;99322.00;;;5.95;38.15
42519;BME280;28147;47.520;18.920;2024-01-11T09:59:20;99315.81;;;6.18;38.87
42519;BME280;28147;47.520;18.920;2024-01-11T10:01:47;99318.72;;;6.23;38.25
42519;BME280;28147;47.520;18.920;2024-01-11T10:04:14;99314.28;;;4.79;38.98
42519;BME280;28147;47.520;18.920;2024-01-11T10:06:40;99312.72;;;5.76;39.41
42519;BME280;28147;47.520;18.920;2024-01-11T10:09:06;99309.94;;;5.93;39.29
42519;BME280;28147;47.520;18.920;2024-01-11T10:11:32;99297.34;;;4.96;40.38
42519;BME280;28147;47.520;18.920;2024-01-11T10:13:59;99304.00;;;5.53;40.60
42519;BME280;28147;47.520;18.920;2024-01-11T10:16:28;99306.03;;;5.28;39.96
42519;BME280;28147;47.520;18.920;2024-01-11T10:18:54;99300.47;;;4.37;41.35
42519;BME280;28147;47.520;18.920;2024-01-11T10:21:20;99280.44;;;5.51;40.49
42519;BME280;28147;47.520;18.920;2024-01-11T10:23:45;99296.53;;;6.24;39.11
42519;BME280;28147;47.520;18.920;2024-01-11T10:26:10;99289.47;;;5.95;39.01
42519;BME280;28147;47.520;18.920;2024-01-11T10:28:36;99283.78;;;6.13;38.89
42519;BME280;28147;47.520;18.920;2024-01-11T10:31:04;99292.31;;;5.85;38.39
42519;BME280;28147;47.520;18.920;2024-01-11T10:33:33;99279.75;;;6.31;38.05
42519;BME280;28147;47.520;18.920;2024-01-11T10:36:00;99290.81;;;5.68;38.57
42519;BME280;28147;47.520;18.920;2024-01-11T10:38:26;99285.75;;;6.40;38.77
42519;BME280;28147;47.520;18.920;2024-01-11T10:40:53;99279.72;;;6.61;38.38
42519;BME280;28147;47.520;18.920;2024-01-11T10:43:21;99282.81;;;6.65;39.02
42519;BME280;28147;47.520;18.920;2024-01-11T10:45:48;99277.72;;;6.63;38.46
42519;BME280;28147;47.520;18.920;2024-01-11T10:48:20;99266.28;;;6.41;37.63
42519;BME280;28147;47.520;18.920;2024-01-11T10:50:49;99273.22;;;6.13;39.21
42519;BME280;28147;47.520;18.920;2024-01-11T10:56:05;99269.75;;;6.27;38.91
42519;BME280;28147;47.520;18.920;2024-01-11T10:58:36;99252.78;;;5.01;40.00
42519;BME280;28147;47.520;18.920;2024-01-11T11:01:02;99242.53;;;5.44;40.59
42519;BME280;28147;47.520;18.920;2024-01-11T11:03:30;99235.88;;;5.48;40.36
42519;BME280;28147;47.520;18.920;2024-01-11T11:05:58;99238.13;;;6.04;40.07
42519;BME280;28147;47.520;18.920;2024-01-11T11:08:24;99237.28;;;6.33;38.65
42519;BME280;28147;47.520;18.920;2024-01-11T11:11:01;99239.03;;;6.11;39.35
42519;BME280;28147;47.520;18.920;2024-01-11T11:13:29;99242.25;;;6.57;38.93
42519;BME280;28147;47.520;18.920;2024-01-11T11:15:54;99237.50;;;6.53;39.13
42519;BME280;28147;47.520;18.920;2024-01-11T11:18:22;99230.63;;;6.58;38.85
42519;BME280;28147;47.520;18.920;2024-01-11T11:20:48;99233.13;;;6.81;37.51
42519;BME280;28147;47.520;18.920;2024-01-11T11:23:15;99228.31;;;6.70;38.92
42519;BME280;28147;47.520;18.920;2024-01-11T11:25:42;99220.34;;;6.13;38.94
42519;BME280;28147;47.520;18.920;2024-01-11T11:28:11;99219.44;;;6.20;39.46
42519;BME280;28147;47.520;18.920;2024-01-11T11:30:38;99215.97;;;5.90;39.40
42519;BME280;28147;47.520;18.920;2024-01-11T11:33:11;99204.53;;;6.34;38.83
42519;BME280;28147;47.520;18.920;2024-01-11T11:35:40;99187.91;;;6.40;39.54
42519;BME280;28147;47.520;18.920;2024-01-11T11:38:06;99185.72;;;6.07;39.80
42519;BME280;28147;47.520;18.920;2024-01-11T11:40:36;99180.97;;;5.44;40.68
42519;BME280;28147;47.520;18.920;2024-01-11T11:43:05;99191.47;;;6.11;40.87
42519;BME280;28147;47.520;18.920;2024-01-11T11:45:30;99192.53;;;6.53;40.82
42519;BME280;28147;47.520;18.920;2024-01-11T11:47:59;99192.50;;;6.68;40.06
42519;BME280;28147;47.520;18.920;2024-01-11T11:50:25;99191.31;;;6.34;40.49
42519;BME280;28147;47.520;18.920;2024-01-11T11:52:57;99186.56;;;6.66;40.29
42519;BME280;28147;47.520;18.920;2024-01-11T11:55:23;99177.47;;;5.96;40.59
42519;BME280;28147;47.520;18.920;2024-01-11T11:57:52;99175.38;;;6.27;41.37
42519;BME280;28147;47.520;18.920;2024-01-11T12:00:19;99168.75;;;6.17;40.63
42519;BME280;28147;47.520;18.920;2024-01-11T12:02:46;99162.34;;;6.26;40.79
42519;BME280;28147;47.520;18.920;2024-01-11T12:05:14;99167.03;;;6.45;40.75
42519;BME280;28147;47.520;18.920;2024-01-11T12:07:39;99166.38;;;6.43;41.31
42519;BME280;28147;47.520;18.920;2024-01-11T12:10:05;99160.47;;;5.90;40.96
42519;BME280;28147;47.520;18.920;2024-01-11T12:12:32;99147.94;;;5.92;41.48
42519;BME280;28147;47.520;18.920;2024-01-11T12:14:57;99158.03;;;5.44;41.63
42519;BME280;28147;47.520;18.920;2024-01-11T12:17:24;99143.00;;;5.45;42.49
42519;BME280;28147;47.520;18.920;2024-01-11T12:19:51;99142.81;;;5.17;42.73
42519;BME280;28147;47.520;18.920;2024-01-11T12:22:17;99141.56;;;5.42;42.63
42519;BME280;28147;47.520;18.920;2024-01-11T12:24:42;99145.09;;;4.44;43.55
42519;BME280;28147;47.520;18.920;2024-01-11T12:27:07;99131.09;;;4.12;44.01
42519;BME280;28147;47.520;18.920;2024-01-11T12:29:33;99140.97;;;4.42;44.59
42519;BME280;28147;47.520;18.920;2024-01-11T12:31:58;99134.78;;;4.03;45.09
42519;BME280;28147;47.520;18.920;2024-01-11T12:34:25;99134.53;;;4.44;44.17
42519;BME280;28147;47.520;18.920;2024-01-11T12:38:12;99140.16;;;4.64;43.57
42519;BME280;28147;47.520;18.920;2024-01-11T12:40:38;99136.09;;;4.76;43.56
42519;BME280;28147;47.520;18.920;2024-01-11T12:43:04;99147.41;;;4.85;43.07
42519;BME280;28147;47.520;18.920;2024-01-11T12:45:31;99136.63;;;4.72;43.15
42519;BME280;28147;47.520;18.920;2024-01-11T12:47:58;99124.53;;;4.39;43.35
42519;BME280;28147;47.520;18.920;2024-01-11T12:50:28;99137.03;;;4.37;43.61
42519;BME280;28147;47.520;18.920;2024-01-11T12:53:10;99132.47;;;4.54;43.27
42519;BME280;28147;47.520;18.920;2024-01-11T12:55:43;99127.78;;;4.19;43.92
42519;BME280;28147;47.520;18.920;2024-01-11T12:58:08;99117.63;;;4.07;43.81
42519;BME280;28147;47.520;18.920;2024-01-11T13:00:37;99108.19;;;4.21;43.98
42519;BME280;28147;47.520;18.920;2024-01-11T13:05:12;99121.56;;;4.11;44.32
42519;BME280;28147;47.520;18.920;2024-01-11T13:07:37;99102.13;;;4.12;44.37
42519;BME280;28147;47.520;18.920;2024-01-11T13:10:04;99095.09;;;4.05;43.82
42519;BME280;28147;47.520;18.920;2024-01-11T13:12:30;99094.50;;;3.95;44.09
42519;BME280;28147;47.520;18.920;2024-01-11T13:14:55;99083.91;;;4.03;43.58
42519;BME280;28147;47.520;18.920;2024-01-11T13:17:21;99079.56;;;3.87;44.56
42519;BME280;28147;47.520;18.920;2024-01-11T13:19:46;99079.34;;;3.97;44.85
42519;BME280;28147;47.520;18.920;2024-01-11T13:22:12;99069.72;;;3.81;44.98
42519;BME280;28147;47.520;18.920;2024-01-11T13:24:37;99071.50;;;4.11;43.63
42519;BME280;28147;47.520;18.920;2024-01-11T13:27:02;99065.75;;;3.85;44.13
42519;BME280;28147;47.520;18.920;2024-01-11T13:29:28;99065.97;;;3.75;44.23
42519;BME280;28147;47.520;18.920;2024-01-11T13:31:53;99063.13;;;4.08;44.07
42519;BME280;28147;47.520;18.920;2024-01-11T13:34:18;99052.13;;;4.04;43.84
42519;BME280;28147;47.520;18.920;2024-01-11T13:36:44;99069.53;;;3.90;44.16
42519;BME280;28147;47.520;18.920;2024-01-11T13:39:10;99063.69;;;3.72;44.50
42519;BME280;28147;47.520;18.920;2024-01-11T13:41:36;99060.63;;;3.60;44.73
42519;BME280;28147;47.520;18.920;2024-01-11T13:44:01;99065.47;;;3.49;45.19
42519;BME280;28147;47.520;18.920;2024-01-11T13:46:26;99067.16;;;3.33;44.75
42519;BME280;28147;47.520;18.920;2024-01-11T13:48:52;99066.66;;;3.38;44.99
42519;BME280;28147;47.520;18.920;2024-01-11T13:51:18;99054.22;;;3.15;45.25
42519;BME280;28147;47.520;18.920;2024-01-11T13:53:43;99051.56;;;3.24;45.22
42519;BME280;28147;47.520;18.920;2024-01-11T13:56:09;99058.44;;;3.95;59.07
42519;BME280;28147;47.520;18.920;2024-01-11T13:58:34;99034.16;;;3.54;45.25
42519;BME280;28147;47.520;18.920;2024-01-11T14:01:00;99037.31;;;3.80;46.82
42519;BME280;28147;47.520;18.920;2024-01-11T14:03:25;99035.41;;;3.66;45.43
42519;BME280;28147;47.520;18.920;2024-01-11T14:05:50;99028.25;;;3.52;46.31
42519;BME280;28147;47.520;18.920;2024-01-11T14:08:16;99030.81;;;3.29;46.36
42519;BME280;28147;47.520;18.920;2024-01-11T14:10:42;99023.25;;;3.26;46.48
42519;BME280;28147;47.520;18.920;2024-01-11T14:13:07;99019.22;;;3.15;46.79
42519;BME280;28147;47.520;18.920;2024-01-11T14:15:32;99009.78;;;3.29;46.69
42519;BME280;28147;47.520;18.920;2024-01-11T14:17:58;99002.44;;;3.16;46.78
42519;BME280;28147;47.520;18.920;2024-01-11T14:20:23;98995.88;;;3.12;46.96
42519;BME280;28147;47.520;18.920;2024-01-11T14:22:49;99000.81;;;3.15;47.36
42519;BME280;28147;47.520;18.920;2024-01-11T14:25:19;98985.88;;;3.07;46.92
42519;BME280;28147;47.520;18.920;2024-01-11T14:27:44;98988.03;;;3.04;47.08
42519;BME280;28147;47.520;18.920;2024-01-11T14:30:11;98999.47;;;3.19;47.79
42519;BME280;28147;47.520;18.920;2024-01-11T14:32:37;98987.59;;;2.92;47.65
42519;BME280;28147;47.520;18.920;2024-01-11T14:35:03;98989.38;;;3.00;47.81
42519;BME280;28147;47.520;18.920;2024-01-11T14:37:36;98990.53;;;2.89;47.81
42519;BME280;28147;47.520;18.920;2024-01-11T14:40:03;98975.91;;;2.86;47.92
42519;BME280;28147;47.520;18.920;2024-01-11T14:42:29;98984.19;;;2.67;47.93
42519;BME280;28147;47.520;18.920;2024-01-11T14:44:55;98976.78;;;2.71;48.01
42519;BME280;28147;47.520;18.920;2024-01-11T14:47:21;98981.75;;;2.65;48.06
42519;BME280;28147;47.520;18.920;2024-01-11T14:49:47;98978.50;;;2.47;48.03
42519;BME280;28147;47.520;18.920;2024-01-11T14:52:12;98966.31;;;2.62;48.13
42519;BME280;28147;47.520;18.920;2024-01-11T14:54:38;98963.56;;;2.39;48.61
42519;BME280;28147;47.520;18.920;2024-01-11T14:57:04;98956.84;;;2.29;48.73
42519;BME280;28147;47.520;18.920;2024-01-11T14:59:30;98949.63;;;2.23;49.41
42519;BME280;28147;47.520;18.920;2024-01-11T15:01:56;98976.66;;;2.56;48.76
42519;BME280;28147;47.520;18.920;2024-01-11T15:04:21;98948.09;;;2.53;48.36
42519;BME280;28147;47.520;18.920;2024-01-11T15:06:47;98958.44;;;2.46;48.39
42519;BME280;28147;47.520;18.920;2024-01-11T15:09:12;98945.44;;;2.61;48.20
42519;BME280;28147;47.520;18.920;2024-01-11T15:11:41;98954.50;;;2.58;48.64
42519;BME280;28147;47.520;18.920;2024-01-11T15:14:07;98953.03;;;2.48;48.54
42519;BME280;28147;47.520;18.920;2024-01-11T15:16:35;98941.75;;;2.39;48.37
42519;BME280;28147;47.520;18.920;2024-01-11T15:19:00;98956.19;;;2.18;49.00
42519;BME280;28147;47.520;18.920;2024-01-11T15:21:26;98955.88;;;2.22;48.83
42519;BME280;28147;47.520;18.920;2024-01-11T15:23:51;98966.69;;;2.43;49.08
42519;BME280;28147;47.520;18.920;2024-01-11T15:26:16;98951.28;;;2.24;49.45
42519;BME280;28147;47.520;18.920;2024-01-11T15:28:42;98957.03;;;1.86;49.88
42519;BME280;28147;47.520;18.920;2024-01-11T15:31:07;98961.47;;;1.94;50.16
42519;BME280;28147;47.520;18.920;2024-01-11T15:33:33;98962.28;;;1.86;50.26
42519;BME280;28147;47.520;18.920;2024-01-11T15:35:58;98961.78;;;1.66;50.49
42519;BME280;28147;47.520;18.920;2024-01-11T15:38:24;98955.50;;;1.51;50.71
42519;BME280;28147;47.520;18.920;2024-01-11T15:43:58;98925.50;;;1.37;52.36
42519;BME280;28147;47.520;18.920;2024-01-11T15:46:24;98928.06;;;1.13;53.21
42519;BME280;28147;47.520;18.920;2024-01-11T15:48:49;98946.28;;;1.23;52.36
42519;BME280;28147;47.520;18.920;2024-01-11T16:00:52;98954.06;;;1.40;52.28
42519;BME280;28147;47.520;18.920;2024-01-11T16:03:49;98962.75;;;1.57;51.76
42519;BME280;28147;47.520;18.920;2024-01-11T16:18:42;98954.78;;;1.16;48.89
42519;BME280;28147;47.520;18.920;2024-01-11T16:21:08;98945.47;;;1.22;49.44
42519;BME280;28147;47.520;18.920;2024-01-11T16:23:33;98966.00;;;1.35;48.36
42519;BME280;28147;47.520;18.920;2024-01-11T16:25:59;98960.94;;;1.50;49.31
42519;BME280;28147;47.520;18.920;2024-01-11T16:28:25;98958.81;;;1.69;49.03
42519;BME280;28147;47.520;18.920;2024-01-11T16:30:50;98946.03;;;1.66;48.04
42519;BME280;28147;47.520;18.920;2024-01-11T16:33:15;98949.81;;;1.72;48.70
42519;BME280;28147;47.520;18.920;2024-01-11T16:35:41;98960.81;;;1.76;48.55
42519;BME280;28147;47.520;18.920;2024-01-11T16:38:07;98949.16;;;2.03;48.17
42519;BME280;28147;47.520;18.920;2024-01-11T16:40:33;98938.31;;;1.57;48.89
42519;BME280;28147;47.520;18.920;2024-01-11T16:42:58;98943.50;;;1.32;49.31
42519;BME280;28147;47.520;18.920;2024-01-11T16:45:24;98938.78;;;1.36;49.23
42519;BME280;28147;47.520;18.920;2024-01-11T16:47:49;98918.28;;;1.23;50.28
42519;BME280;28147;47.520;18.920;2024-01-11T16:50:15;98930.78;;;1.54;49.47
42519;BME280;28147;47.520;18.920;2024-01-11T17:04:49;98926.16;;;1.31;51.07
42519;BME280;28147;47.520;18.920;2024-01-11T17:18:46;98909.59;;;1.39;51.59
42519;BME280;28147;47.520;18.920;2024-01-11T17:23:14;98897.66;;;1.69;50.52
42519;BME280;28147;47.520;18.920;2024-01-11T17:28:21;98887.81;;;1.63;50.81
42519;BME280;28147;47.520;18.920;2024-01-11T17:30:46;98879.44;;;1.18;51.20
42519;BME280;28147;47.520;18.920;2024-01-11T17:33:11;98874.81;;;1.29;50.85
42519;BME280;28147;47.520;18.920;2024-01-11T17:35:37;98870.25;;;1.14;50.65
42519;BME280;28147;47.520;18.920;2024-01-11T17:38:02;98884.28;;;0.89;51.08
42519;BME280;28147;47.520;18.920;2024-01-11T17:46:55;98854.50;;;1.06;50.60
42519;BME280;28147;47.520;18.920;2024-01-11T17:50:11;98866.84;;;0.71;51.64
42519;BME280;28147;47.520;18.920;2024-01-11T17:54:16;98867.56;;;0.98;50.12
42519;BME280;28147;47.520;18.920;2024-01-11T17:56:41;98863.63;;;0.94;49.79
42519;BME280;28147;47.520;18.920;2024-01-11T18:06:49;98847.59;;;1.13;49.77
42519;BME280;28147;47.520;18.920;2024-01-11T19:07:17;98769.94;;;1.29;49.54
42519;BME280;28147;47.520;18.920;2024-01-11T19:12:39;98763.25;;;1.26;49.88
42519;BME280;28147;47.520;18.920;2024-01-11T19:18:47;98769.94;;;1.20;49.46
42519;BME280;28147;47.520;18.920;2024-01-11T19:58:17;98816.19;;;1.30;48.88
42519;BME280;28147;47.520;18.920;2024-01-11T20:00:42;98797.47;;;1.57;48.53
42519;BME280;28147;47.520;18.920;2024-01-11T20:05:14;98791.00;;;1.84;47.90
42519;BME280;28147;47.520;18.920;2024-01-11T20:07:40;98795.97;;;1.79;47.82
42519;BME280;28147;47.520;18.920;2024-01-11T20:17:58;98786.16;;;1.57;48.15
42519;BME280;28147;47.520;18.920;2024-01-11T20:22:10;98786.91;;;1.82;47.83
42519;BME280;28147;47.520;18.920;2024-01-11T22:35:41;98852.63;;;0.82;54.83
42519;BME280;28147;47.520;18.920;2024-01-11T23:00:35;98889.25;;;0.58;55.22
42519;BME280;28147;47.520;18.920;2024-01-11T23:03:58;98894.06;;;0.87;55.03
42519;BME280;28147;47.520;18.920;2024-01-11T23:09:38;98896.91;;;1.10;54.30
42519;BME280;28147;47.520;18.920;2024-01-11T23:12:03;98911.03;;;1.17;54.40
